Time;durP1;ratioP1;P1;durP2;ratioP2;P2;SDS_P1;SDS_P2;PMS_P1;PMS_P2;Temp;Humidity;BMP_temperature;BMP_pressure;BME280_temperature;BME280_humidity;BME280_pressure;Samples;Min_cycle;Max_cycle;Signal;HPM_P1;HPM_P2
2024/02/18 09:37:26;;;;;;;1.73;0.80;;;10.60;99.90;;;;;;4727109;27;20267;-76
2024/02/18 09:39:53;;;;;;;2.87;0.70;;;10.50;99.90;;;;;;4901617;29;20245;-76
2024/02/18 09:42:20;;;;;;;3.80;1.27;;;10.60;99.90;;;;;;4901950;29;20229;-76
2024/02/18 09:44:49;;;;;;;1.00;0.80;;;10.80;99.90;;;;;;4902211;29;20214;-75
2024/02/18 09:47:17;;;;;;;2.63;0.77;;;10.80;99.90;;;;;;4901455;29;20305;-74
2024/02/18 09:49:45;;;;;;;8.03;0.70;;;10.80;99.90;;;;;;4901074;29;20214;-75
2024/02/18 09:52:13;;;;;;;2.53;0.60;;;10.80;99.90;;;;;;4900821;29;20242;-76
2024/02/18 09:54:41;;;;;;;1.13;0.60;;;10.90;99.90;;;;;;4900859;29;20571;-74
2024/02/18 09:57:08;;;;;;;3.17;0.90;;;11.00;99.90;;;;;;4900954;29;20246;-74
2024/02/18 09:59:35;;;;;;;2.87;1.13;;;11.10;99.90;;;;;;4900472;29;20547;-76
2024/02/18 10:02:05;;;;;;;0.97;0.40;;;11.10;99.90;;;;;;4900591;29;20743;-75
2024/02/18 10:04:32;;;;;;;4.87;0.70;;;11.00;99.90;;;;;;4900441;29;20218;-74
2024/02/18 10:06:59;;;;;;;1.23;0.73;;;11.00;99.90;;;;;;4900154;29;20687;-74
2024/02/18 10:09:27;;;;;;;1.77;0.60;;;11.00;99.90;;;;;;4900327;29;20210;-73
2024/02/18 10:11:55;;;;;;;3.03;0.70;;;11.10;99.90;;;;;;4900067;29;20670;-75
2024/02/18 10:14:23;;;;;;;3.10;0.60;;;11.20;99.90;;;;;;4900413;29;20547;-74
2024/02/18 10:16:50;;;;;;;2.40;0.90;;;11.30;99.90;;;;;;4900274;29;20270;-75
2024/02/18 10:19:17;;;;;;;0.60;0.43;;;11.40;99.90;;;;;;4900907;29;20599;-75
2024/02/18 10:21:44;;;;;;;2.53;0.60;;;11.50;99.90;;;;;;4899982;29;20638;-75
2024/02/18 10:24:12;;;;;;;3.53;0.60;;;11.50;99.90;;;;;;4900364;29;20601;-75
2024/02/18 10:26:39;;;;;;;2.57;0.57;;;11.50;99.90;;;;;;4899817;29;20574;-76
2024/02/18 10:29:10;;;;;;;1.17;0.43;;;11.50;99.90;;;;;;4900833;29;20210;-74
2024/02/18 10:31:37;;;;;;;1.03;0.50;;;11.60;99.90;;;;;;4900133;29;20599;-74
2024/02/18 10:34:05;;;;;;;0.77;0.40;;;11.50;99.90;;;;;;4899827;29;20285;-75
2024/02/18 10:36:34;;;;;;;5.37;0.43;;;11.50;99.90;;;;;;4899714;29;20232;-75
2024/02/18 10:39:03;;;;;;;0.73;0.43;;;11.40;99.90;;;;;;4899731;29;20218;-77
2024/02/18 10:41:34;;;;;;;1.13;0.43;;;11.40;99.90;;;;;;4899852;29;20238;-75
2024/02/18 10:44:03;;;;;;;3.10;0.60;;;11.30;99.90;;;;;;4899882;29;20234;-77
2024/02/18 10:46:35;;;;;;;1.07;0.50;;;11.30;99.90;;;;;;4899899;29;20246;-76
2024/02/18 10:49:09;;;;;;;0.83;0.30;;;11.30;99.90;;;;;;4899809;29;20278;-76
2024/02/18 10:51:40;;;;;;;0.80;0.40;;;11.30;99.90;;;;;;4899436;29;20214;-75
2024/02/18 10:54:13;;;;;;;0.90;0.70;;;11.20;99.90;;;;;;4899723;29;20226;-79
2024/02/18 10:56:40;;;;;;;0.70;0.50;;;11.10;99.90;;;;;;4899331;29;20214;-78
2024/02/18 10:59:15;;;;;;;1.03;0.30;;;10.90;99.90;;;;;;4899756;29;20658;-77
2024/02/18 11:01:50;;;;;;;0.87;0.37;;;10.90;99.90;;;;;;4899787;29;20246;-77
2024/02/18 11:04:18;;;;;;;2.63;0.57;;;10.80;99.90;;;;;;4899605;29;20230;-76
2024/02/18 11:06:46;;;;;;;3.23;0.60;;;10.70;99.90;;;;;;4899320;29;20666;-83
2024/02/18 11:09:14;;;;;;;1.50;0.50;;;10.60;99.90;;;;;;4900276;29;20221;-77
2024/02/18 11:11:43;;;;;;;0.70;0.47;;;10.50;99.90;;;;;;4899515;29;20210;-77
2024/02/18 11:14:11;;;;;;;0.90;0.30;;;10.40;99.90;;;;;;4899440;29;20234;-76
2024/02/18 11:16:41;;;;;;;2.40;0.37;;;10.20;99.90;;;;;;4895572;29;20221;-79
2024/02/18 11:19:11;;;;;;;0.50;0.30;;;10.10;99.90;;;;;;4895874;29;20292;-76
2024/02/18 11:21:38;;;;;;;3.70;1.00;;;10.00;99.90;;;;;;4897781;29;20238;-74
2024/02/18 11:24:07;;;;;;;0.57;0.40;;;9.90;99.90;;;;;;4897472;29;20713;-76
2024/02/18 11:26:35;;;;;;;4.30;0.70;;;9.80;99.90;;;;;;4897907;29;20214;-77
2024/02/18 11:29:02;;;;;;;4.07;0.57;;;9.70;99.90;;;;;;4903538;29;20210;-77
2024/02/18 11:31:31;;;;;;;1.57;0.60;;;9.70;99.90;;;;;;4909487;29;20209;-77
2024/02/18 11:33:58;;;;;;;1.47;0.60;;;9.80;99.90;;;;;;4899598;29;20222;-77
2024/02/18 11:36:27;;;;;;;4.00;0.40;;;9.80;99.90;;;;;;4897342;29;20226;-79
2024/02/18 11:38:57;;;;;;;1.60;0.47;;;9.90;99.90;;;;;;4896945;29;20214;-77
2024/02/18 11:41:28;;;;;;;0.83;0.43;;;9.80;99.90;;;;;;4906782;29;20238;-84
2024/02/18 11:43:57;;;;;;;2.53;0.50;;;9.80;99.90;;;;;;4903687;29;20238;-83
2024/02/18 11:46:25;;;;;;;3.00;0.50;;;9.90;99.90;;;;;;4901475;29;20206;-80
2024/02/18 11:48:52;;;;;;;0.57;0.40;;;9.90;99.90;;;;;;4902724;29;20206;-75
2024/02/18 11:51:20;;;;;;;0.50;0.40;;;10.00;99.90;;;;;;4912593;29;20210;-76
2024/02/18 11:53:49;;;;;;;2.70;0.43;;;10.00;99.90;;;;;;4909335;29;20262;-74
2024/02/18 11:56:17;;;;;;;0.87;0.53;;;10.10;99.90;;;;;;4908649;29;20210;-74
2024/02/18 11:58:46;;;;;;;1.93;0.80;;;10.00;99.90;;;;;;4898618;29;20215;-75
2024/02/18 12:01:15;;;;;;;0.50;0.40;;;10.00;99.90;;;;;;4897639;29;20242;-75
2024/02/18 12:03:45;;;;;;;4.47;0.47;;;10.00;99.90;;;;;;4899095;29;20226;-76
2024/02/18 12:06:12;;;;;;;0.93;0.60;;;10.00;99.90;;;;;;4898948;29;20215;-75
2024/02/18 12:08:39;;;;;;;3.37;0.60;;;9.90;99.90;;;;;;4898696;29;20297;-75
2024/02/18 12:11:08;;;;;;;2.10;0.73;;;10.00;99.90;;;;;;4898716;29;20214;-76
2024/02/18 12:13:35;;;;;;;1.70;0.70;;;10.00;99.90;;;;;;4898770;29;20269;-75
2024/02/18 12:16:04;;;;;;;1.73;0.83;;;9.90;99.90;;;;;;4899208;29;20206;-74
2024/02/18 12:18:31;;;;;;;2.70;0.70;;;10.00;99.90;;;;;;4898811;29;20214;-75
2024/02/18 12:20:58;;;;;;;1.47;0.40;;;9.90;99.90;;;;;;4898712;29;20269;-75
2024/02/18 12:23:26;;;;;;;1.47;0.73;;;9.90;99.90;;;;;;4898977;29;20262;-75
2024/02/18 12:25:54;;;;;;;1.00;0.67;;;10.00;99.90;;;;;;4899051;29;20221;-77
2024/02/18 12:28:22;;;;;;;2.60;0.60;;;10.00;99.90;;;;;;4898283;29;20218;-74
2024/02/18 12:30:50;;;;;;;6.53;3.50;;;9.90;99.90;;;;;;4898963;29;20246;-76
2024/02/18 12:33:18;;;;;;;1.40;0.77;;;10.00;99.90;;;;;;4899048;29;20233;-77
2024/02/18 12:35:45;;;;;;;3.67;0.87;;;10.00;99.90;;;;;;4894075;29;20222;-77
2024/02/18 12:38:13;;;;;;;0.70;0.53;;;10.00;99.90;;;;;;4896054;29;20559;-75
2024/02/18 12:40:40;;;;;;;2.07;0.70;;;10.00;99.90;;;;;;4895979;29;20242;-76
2024/02/18 12:43:07;;;;;;;1.73;0.70;;;10.00;99.90;;;;;;4895182;29;20597;-76
2024/02/18 12:45:36;;;;;;;2.23;1.00;;;10.10;99.90;;;;;;4896056;29;20760;-73
2024/02/18 12:48:06;;;;;;;1.00;0.70;;;10.10;99.90;;;;;;4895240;29;20294;-76
2024/02/18 12:50:33;;;;;;;1.30;1.00;;;10.10;99.90;;;;;;4895442;29;20593;-75
2024/02/18 12:53:00;;;;;;;2.33;0.90;;;10.20;99.90;;;;;;4895609;29;20277;-74
2024/02/18 12:55:29;;;;;;;2.40;0.90;;;10.30;99.90;;;;;;4895568;29;20678;-75
2024/02/18 12:57:57;;;;;;;1.57;0.90;;;10.30;99.90;;;;;;4895824;29;20214;-77
2024/02/18 13:00:24;;;;;;;1.23;0.63;;;10.40;99.90;;;;;;4896374;29;20249;-77
2024/02/18 13:02:55;;;;;;;1.93;0.83;;;10.40;99.90;;;;;;4896009;29;20241;-76
2024/02/18 13:05:24;;;;;;;1.83;1.17;;;10.40;99.90;;;;;;4895219;29;20214;-76
2024/02/18 13:07:53;;;;;;;1.47;1.00;;;10.50;99.90;;;;;;4895901;29;20214;-77
2024/02/18 13:10:19;;;;;;;2.10;0.80;;;10.50;99.90;;;;;;4895935;29;20297;-76
2024/02/18 13:12:47;;;;;;;1.47;0.60;;;10.50;99.90;;;;;;4895434;29;20264;-77
2024/02/18 13:15:14;;;;;;;1.93;0.87;;;10.40;99.90;;;;;;4895370;29;20619;-74
2024/02/18 13:17:42;;;;;;;2.20;0.77;;;10.40;99.90;;;;;;4895079;29;20282;-74
2024/02/18 13:20:12;;;;;;;1.70;0.70;;;10.50;99.90;;;;;;4895242;29;20938;-75
2024/02/18 13:22:40;;;;;;;2.60;0.90;;;10.50;99.90;;;;;;4895480;29;20318;-76
2024/02/18 13:25:09;;;;;;;2.60;1.10;;;10.50;99.90;;;;;;4895353;29;20217;-74
2024/02/18 13:27:37;;;;;;;2.77;0.87;;;10.40;99.90;;;;;;4895337;29;20676;-80
2024/02/18 13:30:04;;;;;;;1.70;0.80;;;10.40;99.90;;;;;;4896726;29;20229;-75
2024/02/18 13:32:31;;;;;;;1.50;0.70;;;10.40;99.90;;;;;;4895331;29;20593;-75
2024/02/18 13:34:58;;;;;;;1.43;1.00;;;10.40;99.90;;;;;;4893856;29;20262;-73
2024/02/18 13:37:28;;;;;;;1.13;0.50;;;10.40;99.90;;;;;;4892610;29;20218;-73
2024/02/18 13:39:55;;;;;;;0.90;0.67;;;10.40;99.90;;;;;;4894867;29;20637;-73
2024/02/18 13:42:23;;;;;;;0.90;0.70;;;10.60;99.90;;;;;;4894133;29;20265;-73
2024/02/18 13:44:50;;;;;;;1.23;0.83;;;10.60;99.90;;;;;;4894141;29;20202;-75
2024/02/18 13:47:20;;;;;;;0.93;0.70;;;10.60;99.90;;;;;;4895095;29;20238;-72
2024/02/18 13:49:47;;;;;;;0.80;0.60;;;10.70;99.90;;;;;;4894604;29;20210;-72
2024/02/18 13:52:14;;;;;;;3.70;0.80;;;10.70;99.90;;;;;;4894428;29;20238;-72
2024/02/18 13:54:42;;;;;;;0.70;0.53;;;10.70;99.90;;;;;;4893134;29;20698;-72
2024/02/18 13:57:09;;;;;;;1.50;0.57;;;10.70;99.90;;;;;;4894204;29;20206;-72
2024/02/18 13:59:36;;;;;;;1.87;0.80;;;10.80;99.90;;;;;;4895125;29;20306;-73
2024/02/18 14:02:05;;;;;;;0.57;0.50;;;10.80;99.90;;;;;;4895717;29;20238;-72
2024/02/18 14:04:32;;;;;;;1.97;0.90;;;10.80;99.90;;;;;;4897958;29;20210;-72
2024/02/18 14:06:59;;;;;;;1.03;0.73;;;10.80;99.90;;;;;;4898255;29;20637;-72
2024/02/18 14:09:26;;;;;;;1.43;0.83;;;10.80;99.90;;;;;;4898772;29;20593;-72
2024/02/18 14:11:54;;;;;;;1.73;0.70;;;10.90;99.90;;;;;;4897273;29;20258;-73
2024/02/18 14:14:21;;;;;;;0.73;0.60;;;11.00;99.90;;;;;;4898247;29;20300;-73
2024/02/18 14:16:51;;;;;;;1.37;0.77;;;11.00;99.90;;;;;;4898449;29;20266;-73
2024/02/18 14:19:18;;;;;;;1.73;1.00;;;11.10;99.90;;;;;;4897165;29;20207;-73
2024/02/18 14:21:45;;;;;;;0.77;0.60;;;11.10;99.90;;;;;;4897888;29;20685;-71
2024/02/18 14:24:12;;;;;;;1.93;0.80;;;11.10;99.90;;;;;;4897966;29;20223;-72
2024/02/18 14:26:41;;;;;;;2.70;1.30;;;11.00;99.90;;;;;;4897938;29;20254;-71
2024/02/18 14:29:09;;;;;;;3.33;1.53;;;11.00;99.90;;;;;;4898709;29;20317;-72
2024/02/18 14:31:36;;;;;;;3.00;1.00;;;11.10;99.90;;;;;;4898054;29;20230;-73
2024/02/18 14:34:03;;;;;;;1.23;0.90;;;11.10;99.90;;;;;;4896950;29;20261;-73
2024/02/18 14:36:30;;;;;;;1.80;1.07;;;11.10;99.90;;;;;;4896153;29;20210;-72
2024/02/18 14:38:57;;;;;;;2.93;0.93;;;11.10;99.90;;;;;;4896830;29;20210;-73
2024/02/18 14:41:24;;;;;;;1.43;0.73;;;11.20;99.90;;;;;;4896688;29;20230;-73
2024/02/18 14:43:51;;;;;;;2.00;1.20;;;11.20;99.90;;;;;;4897378;29;20317;-73
2024/02/18 14:46:19;;;;;;;1.00;0.80;;;11.00;99.90;;;;;;4897201;29;20302;-72
2024/02/18 14:48:46;;;;;;;2.50;1.53;;;10.90;99.90;;;;;;4896880;29;20214;-72
2024/02/18 14:51:14;;;;;;;3.07;0.80;;;11.00;99.90;;;;;;4897266;29;20207;-73
2024/02/18 14:53:45;;;;;;;2.77;1.53;;;10.90;99.90;;;;;;4896983;29;20616;-72
2024/02/18 14:56:12;;;;;;;1.70;1.10;;;10.90;99.90;;;;;;4896117;29;20234;-73
2024/02/18 14:58:39;;;;;;;1.00;0.70;;;11.00;99.90;;;;;;4897049;29;20246;-73
2024/02/18 15:01:06;;;;;;;1.63;0.80;;;10.90;99.90;;;;;;4897175;29;20214;-73
2024/02/18 15:03:35;;;;;;;1.83;0.90;;;11.00;99.90;;;;;;4895856;29;20219;-73
2024/02/18 15:06:02;;;;;;;0.97;0.80;;;10.90;99.90;;;;;;4896127;29;20210;-73
2024/02/18 15:08:29;;;;;;;1.40;0.90;;;11.00;99.90;;;;;;4896241;29;20693;-73
2024/02/18 15:10:55;;;;;;;2.87;1.03;;;11.00;99.90;;;;;;4895794;29;20301;-72
2024/02/18 15:13:22;;;;;;;1.80;1.00;;;11.10;99.90;;;;;;4895520;29;20230;-72
2024/02/18 15:15:50;;;;;;;2.57;1.00;;;11.00;99.90;;;;;;4896377;29;20289;-73
2024/02/18 15:18:17;;;;;;;1.77;1.10;;;11.10;99.90;;;;;;4896336;29;20242;-73
2024/02/18 15:20:45;;;;;;;2.20;1.10;;;11.10;99.90;;;;;;4896228;29;20680;-73
2024/02/18 15:23:12;;;;;;;1.60;0.97;;;11.20;99.90;;;;;;4893418;29;20245;-73
2024/02/18 15:25:39;;;;;;;2.60;1.20;;;11.30;99.90;;;;;;4892774;29;20214;-73
2024/02/18 15:28:07;;;;;;;1.93;1.30;;;11.30;99.90;;;;;;4905878;29;20353;-73
2024/02/18 15:30:34;;;;;;;1.67;1.40;;;11.40;99.90;;;;;;4901749;29;20222;-72
2024/02/18 15:33:01;;;;;;;1.57;1.10;;;11.40;99.90;;;;;;4917897;23;20269;-78
2024/02/18 15:35:29;;;;;;;1.50;1.03;;;11.40;99.90;;;;;;4934031;29;20205;-75
2024/02/18 15:37:57;;;;;;;1.77;1.00;;;11.40;99.90;;;;;;4921357;29;20237;-75
2024/02/18 15:40:24;;;;;;;3.43;1.90;;;11.50;99.90;;;;;;4914549;29;20201;-74
2024/02/18 15:42:53;;;;;;;4.07;1.67;;;11.50;99.90;;;;;;4900260;29;20326;-75
2024/02/18 15:45:21;;;;;;;1.87;1.37;;;11.50;99.90;;;;;;4890278;29;20206;-74
2024/02/18 15:47:48;;;;;;;1.20;1.10;;;11.50;99.90;;;;;;4889678;29;20290;-77
2024/02/18 15:50:15;;;;;;;1.77;1.07;;;11.40;99.90;;;;;;4893618;29;20209;-75
2024/02/18 15:52:42;;;;;;;1.77;1.43;;;11.50;99.90;;;;;;4893517;29;20752;-83
2024/02/18 15:55:10;;;;;;;2.33;1.17;;;11.50;99.90;;;;;;4888935;29;20207;-87
2024/02/18 15:57:37;;;;;;;2.93;1.50;;;11.60;99.90;;;;;;4885871;29;20290;-78
2024/02/18 16:00:04;;;;;;;1.40;1.10;;;11.60;99.90;;;;;;4886121;29;20636;-75
2024/02/18 16:02:31;;;;;;;1.40;1.10;;;11.70;99.90;;;;;;4916783;29;20336;-78
2024/02/18 16:04:58;;;;;;;1.70;1.47;;;11.60;99.90;;;;;;4907953;29;20217;-76
2024/02/18 16:07:26;;;;;;;2.27;1.40;;;11.60;99.90;;;;;;4899630;29;20206;-86
2024/02/18 16:09:54;;;;;;;2.03;1.40;;;11.60;99.90;;;;;;4900124;29;20662;-85
2024/02/18 16:12:22;;;;;;;1.50;1.00;;;11.70;99.90;;;;;;4882202;29;20239;-77
2024/02/18 16:14:49;;;;;;;1.60;1.20;;;11.70;99.90;;;;;;4897258;29;20289;-75
2024/02/18 16:17:17;;;;;;;1.17;1.00;;;11.70;99.90;;;;;;4920481;29;20224;-78
2024/02/18 16:19:44;;;;;;;1.67;1.10;;;11.70;99.90;;;;;;4921678;29;20210;-76
2024/02/18 16:22:11;;;;;;;1.67;0.90;;;11.80;99.90;;;;;;4917506;29;20760;-75
2024/02/18 16:24:38;;;;;;;2.30;1.10;;;11.80;99.90;;;;;;4917302;29;20209;-76
2024/02/18 16:27:05;;;;;;;1.30;0.90;;;11.80;99.90;;;;;;4917228;29;20305;-78
2024/02/18 16:29:35;;;;;;;1.63;0.90;;;11.80;99.90;;;;;;4896839;29;20313;-82
2024/02/18 16:32:02;;;;;;;1.40;1.00;;;11.70;99.90;;;;;;4899888;29;20221;-82
2024/02/18 16:34:29;;;;;;;1.53;0.80;;;11.90;99.90;;;;;;4898776;29;20309;-79
2024/02/18 16:36:55;;;;;;;2.50;1.23;;;11.90;99.90;;;;;;4898434;29;20295;-77
2024/02/18 16:39:22;;;;;;;1.60;1.10;;;11.80;99.90;;;;;;4898340;29;20206;-75
2024/02/18 16:41:49;;;;;;;3.10;0.93;;;11.90;99.90;;;;;;4898238;29;20583;-76
2024/02/18 16:44:16;;;;;;;1.60;1.10;;;11.90;99.90;;;;;;4898359;29;20325;-80
2024/02/18 16:46:44;;;;;;;1.83;0.87;;;11.90;99.90;;;;;;4891106;29;20228;-77
2024/02/18 16:49:16;;;;;;;1.63;1.03;;;11.80;99.90;;;;;;4895520;29;20202;-84
2024/02/18 16:51:43;;;;;;;1.67;0.83;;;11.80;99.90;;;;;;4897351;29;20207;-81
2024/02/18 16:54:09;;;;;;;3.13;1.00;;;11.80;99.90;;;;;;4898396;29;20238;-86
2024/02/18 16:56:36;;;;;;;1.27;0.83;;;11.80;99.90;;;;;;4898583;29;20309;-87
2024/02/18 16:59:03;;;;;;;1.40;0.80;;;11.80;99.90;;;;;;4898658;29;20217;-83
2024/02/18 17:01:30;;;;;;;2.37;0.70;;;11.80;99.90;;;;;;4899071;29;20210;-78
2024/02/18 17:03:58;;;;;;;2.53;0.70;;;11.80;99.90;;;;;;4896945;29;20242;-85
2024/02/18 17:06:25;;;;;;;2.93;0.70;;;11.80;99.90;;;;;;4898744;29;20302;-86
2024/02/18 17:08:52;;;;;;;0.87;0.50;;;11.80;99.90;;;;;;4898731;29;20317;-83
2024/02/18 17:11:18;;;;;;;1.53;0.60;;;11.80;99.90;;;;;;4899794;29;20206;-86
2024/02/18 17:13:47;;;;;;;0.93;0.60;;;11.90;99.90;;;;;;4899226;29;20238;-83
2024/02/18 17:16:15;;;;;;;1.20;0.67;;;11.80;99.90;;;;;;4901543;29;20217;-86
2024/02/18 17:18:42;;;;;;;1.00;0.67;;;11.70;99.90;;;;;;4899393;29;20213;-84
2024/02/18 17:21:10;;;;;;;3.13;0.73;;;11.60;99.90;;;;;;4898673;29;20211;-86
2024/02/18 17:23:38;;;;;;;1.20;0.70;;;11.50;99.90;;;;;;4899097;29;20249;-81
2024/02/18 17:26:05;;;;;;;1.77;0.90;;;11.50;99.90;;;;;;4899703;29;20627;-84
2024/02/18 17:28:32;;;;;;;1.97;1.07;;;11.50;99.90;;;;;;4899068;29;20569;-83
2024/02/18 17:30:59;;;;;;;2.83;1.30;;;11.60;99.90;;;;;;4898433;29;20210;-84
2024/02/18 17:33:27;;;;;;;2.07;1.27;;;11.60;99.90;;;;;;4898226;29;20238;-81
2024/02/18 17:35:54;;;;;;;3.43;1.50;;;11.60;99.90;;;;;;4898405;29;20277;-84
2024/02/18 17:38:22;;;;;;;5.70;2.07;;;11.70;99.90;;;;;;4901518;29;20222;-81
2024/02/18 17:40:50;;;;;;;2.70;1.77;;;11.70;99.90;;;;;;4901823;29;20301;-82
2024/02/18 17:43:19;;;;;;;3.23;1.83;;;11.70;99.90;;;;;;4902214;29;20253;-83
2024/02/18 17:45:46;;;;;;;3.07;1.77;;;11.70;99.90;;;;;;4904231;29;20670;-78
2024/02/18 17:48:16;;;;;;;5.23;2.97;;;11.80;99.90;;;;;;4914521;29;20217;-78
2024/02/18 17:50:43;;;;;;;5.03;2.80;;;11.80;99.90;;;;;;4913228;29;20207;-83
2024/02/18 17:53:09;;;;;;;7.43;2.33;;;11.80;99.90;;;;;;4903005;29;20324;-79
2024/02/18 17:55:37;;;;;;;2.83;1.90;;;11.80;99.90;;;;;;4902559;29;20670;-84
2024/02/18 17:58:04;;;;;;;5.53;2.03;;;11.90;99.90;;;;;;4902165;29;20214;-84
2024/02/18 18:00:31;;;;;;;4.90;2.63;;;11.80;99.90;;;;;;4902048;29;20293;-83
2024/02/18 18:02:58;;;;;;;2.80;1.97;;;11.80;99.90;;;;;;4901768;29;20249;-84
2024/02/18 18:05:25;;;;;;;5.00;2.40;;;11.80;99.90;;;;;;4901730;29;20210;-83
2024/02/18 18:07:53;;;;;;;6.17;2.67;;;11.80;99.90;;;;;;4901319;29;20211;-81
2024/02/18 18:10:21;;;;;;;4.10;2.10;;;11.90;99.90;;;;;;4901758;29;20210;-83
2024/02/18 18:12:50;;;;;;;4.93;2.67;;;11.80;99.90;;;;;;4903637;29;20241;-83
2024/02/18 18:15:21;;;;;;;4.87;2.13;;;11.80;99.90;;;;;;4901678;29;20221;-83
2024/02/18 18:17:48;;;;;;;5.87;2.40;;;11.70;99.90;;;;;;4901463;29;20221;-85
2024/02/18 18:20:15;;;;;;;4.23;2.60;;;11.60;99.90;;;;;;4901213;29;20305;-85
2024/02/18 18:22:43;;;;;;;5.73;2.77;;;11.60;99.90;;;;;;4901215;29;20260;-79
2024/02/18 18:25:11;;;;;;;4.50;2.57;;;11.70;99.90;;;;;;4901180;29;20226;-79
2024/02/18 18:27:38;;;;;;;4.77;3.50;;;11.70;99.90;;;;;;4901323;29;20210;-85
2024/02/18 18:30:08;;;;;;;4.60;3.00;;;11.70;99.90;;;;;;4900813;29;20746;-85
2024/02/18 18:32:35;;;;;;;5.90;3.00;;;11.80;99.90;;;;;;4901309;29;20312;-85
2024/02/18 18:35:02;;;;;;;4.50;2.77;;;11.90;99.90;;;;;;4900822;29;20217;-84
2024/02/18 18:37:29;;;;;;;4.63;3.00;;;11.80;99.90;;;;;;4900536;29;20210;-85
2024/02/18 18:39:57;;;;;;;6.50;2.77;;;11.80;99.90;;;;;;4901304;29;20214;-84
2024/02/18 18:42:23;;;;;;;4.53;2.80;;;11.80;99.90;;;;;;4900425;29;20238;-84
2024/02/18 18:44:50;;;;;;;4.70;2.80;;;11.70;99.90;;;;;;4900831;29;20242;-83
2024/02/18 18:47:18;;;;;;;9.57;3.43;;;11.70;99.90;;;;;;4900714;29;20221;-83
2024/02/18 18:49:49;;;;;;;5.27;3.10;;;11.70;99.90;;;;;;4901050;29;20214;-85
2024/02/18 18:52:15;;;;;;;7.80;3.07;;;11.70;99.90;;;;;;4900823;29;20230;-80
2024/02/18 18:54:42;;;;;;;6.87;3.27;;;11.70;99.90;;;;;;4900818;29;20582;-77
2024/02/18 18:57:10;;;;;;;7.70;3.23;;;11.70;99.90;;;;;;4900757;29;20736;-83
2024/02/18 18:59:36;;;;;;;6.67;3.17;;;11.80;99.90;;;;;;4900474;29;20211;-82
2024/02/18 19:02:03;;;;;;;4.80;2.83;;;11.80;99.90;;;;;;4900567;29;20210;-84
2024/02/18 19:04:31;;;;;;;8.07;3.37;;;11.80;99.90;;;;;;4900665;29;20258;-86
2024/02/18 19:06:58;;;;;;;6.70;3.40;;;11.80;99.90;;;;;;4900541;29;20214;-86
2024/02/18 19:09:28;;;;;;;7.13;3.27;;;11.80;99.90;;;;;;4900202;29;20210;-85
2024/02/18 19:11:55;;;;;;;6.87;2.90;;;11.90;99.90;;;;;;4900115;29;20218;-79
2024/02/18 19:14:24;;;;;;;6.97;3.60;;;12.00;99.90;;;;;;4900180;29;20308;-81
2024/02/18 19:16:51;;;;;;;5.60;3.23;;;12.00;99.90;;;;;;4899891;29;20218;-79
2024/02/18 19:19:19;;;;;;;8.70;3.37;;;12.10;99.90;;;;;;4902301;29;20618;-86
2024/02/18 19:21:48;;;;;;;6.00;3.67;;;12.10;99.90;;;;;;4900428;29;20211;-78
2024/02/18 19:24:15;;;;;;;7.77;4.50;;;12.20;99.90;;;;;;4900057;29;20332;-77
2024/02/18 19:26:42;;;;;;;5.57;3.27;;;12.20;99.90;;;;;;4900243;29;20218;-80
2024/02/18 19:29:09;;;;;;;6.20;4.10;;;12.30;99.90;;;;;;4900933;29;20247;-76
2024/02/18 19:31:36;;;;;;;7.10;3.40;;;12.30;99.90;;;;;;4900717;29;20250;-75
2024/02/18 19:34:06;;;;;;;6.33;3.33;;;12.30;99.90;;;;;;4901361;29;20238;-75
2024/02/18 19:36:33;;;;;;;7.90;3.07;;;12.20;99.90;;;;;;4900541;29;20301;-78
2024/02/18 19:39:03;;;;;;;6.77;3.90;;;12.20;99.90;;;;;;4900572;29;20637;-82
2024/02/18 19:41:38;;;;;;;9.70;3.57;;;12.30;99.90;;;;;;4900636;29;20247;-79
2024/02/18 19:44:05;;;;;;;6.47;3.47;;;12.20;99.90;;;;;;4902465;29;20332;-75
2024/02/18 19:46:39;;;;;;;9.90;3.13;;;12.30;99.90;;;;;;4900247;29;20217;-76
2024/02/18 19:49:06;;;;;;;8.83;3.60;;;12.40;99.90;;;;;;4900766;29;20274;-77
2024/02/18 19:51:33;;;;;;;6.43;3.10;;;12.40;99.90;;;;;;4901310;29;20206;-76
2024/02/18 19:54:01;;;;;;;7.93;3.57;;;12.30;99.90;;;;;;4901031;29;20321;-81
2024/02/18 19:56:28;;;;;;;6.63;3.27;;;12.30;99.90;;;;;;4900744;29;20301;-76
2024/02/18 19:58:55;;;;;;;8.70;3.17;;;12.30;99.90;;;;;;4899723;29;20214;-75
2024/02/18 20:01:22;;;;;;;7.87;4.43;;;12.40;99.90;;;;;;4898871;29;20212;-75
2024/02/18 20:03:48;;;;;;;6.40;3.83;;;12.40;99.90;;;;;;4898765;29;20246;-74
2024/02/18 20:06:15;;;;;;;8.90;3.63;;;12.40;99.90;;;;;;4898923;29;20566;-74
2024/02/18 20:08:42;;;;;;;7.17;3.53;;;12.40;99.90;;;;;;4899262;29;20734;-77
2024/02/18 20:11:11;;;;;;;8.33;3.83;;;12.30;99.90;;;;;;4899538;29;20322;-76
2024/02/18 20:13:38;;;;;;;9.17;4.40;;;12.30;99.90;;;;;;4899017;29;20241;-79
2024/02/18 20:16:05;;;;;;;7.50;3.70;;;12.30;99.90;;;;;;4898843;29;20670;-76
2024/02/18 20:18:32;;;;;;;9.70;4.20;;;12.20;99.90;;;;;;4898383;29;20216;-75
2024/02/18 20:21:01;;;;;;;6.33;3.30;;;12.30;99.90;;;;;;4898444;29;20207;-77
2024/02/18 20:23:28;;;;;;;7.63;3.50;;;12.20;99.90;;;;;;4898286;29;20249;-75
2024/02/18 20:25:54;;;;;;;5.80;3.20;;;12.20;99.90;;;;;;4899617;29;20211;-76
2024/02/18 20:28:23;;;;;;;6.73;3.30;;;12.20;99.90;;;;;;4899939;29;20220;-79
2024/02/18 20:30:50;;;;;;;8.63;2.90;;;12.20;99.90;;;;;;4899790;29;20214;-76
2024/02/18 20:33:17;;;;;;;7.23;2.97;;;12.10;99.90;;;;;;4899460;29;20345;-80
2024/02/18 20:35:46;;;;;;;5.93;2.60;;;12.00;99.90;;;;;;4898623;29;20301;-75
2024/02/18 20:38:13;;;;;;;9.53;3.00;;;11.90;99.90;;;;;;4898458;29;20309;-75
2024/02/18 20:40:41;;;;;;;6.70;2.70;;;11.90;99.90;;;;;;4898380;29;20216;-74
2024/02/18 20:43:08;;;;;;;12.63;2.83;;;11.80;99.90;;;;;;4898523;29;20238;-75
2024/02/18 20:45:37;;;;;;;8.30;2.57;;;11.80;99.90;;;;;;4898893;29;20547;-75
2024/02/18 20:48:04;;;;;;;5.53;2.07;;;11.80;99.90;;;;;;4898518;29;20214;-77
2024/02/18 20:50:31;;;;;;;8.53;1.70;;;11.70;99.90;;;;;;4898750;29;20637;-79
2024/02/18 20:52:58;;;;;;;10.70;1.93;;;11.70;99.90;;;;;;4898942;29;20258;-75
2024/02/18 20:55:25;;;;;;;4.40;1.73;;;11.60;99.90;;;;;;4898349;29;20206;-76
2024/02/18 20:57:52;;;;;;;10.83;1.57;;;11.50;99.90;;;;;;4898098;29;20218;-85
2024/02/18 21:00:20;;;;;;;4.80;1.70;;;11.40;99.90;;;;;;4898372;29;20380;-78
2024/02/18 21:02:48;;;;;;;5.00;1.40;;;11.30;99.90;;;;;;4898006;29;20282;-78
2024/02/18 21:05:15;;;;;;;5.63;1.57;;;11.10;99.90;;;;;;4898475;29;20248;-86
2024/02/18 21:07:42;;;;;;;7.43;1.67;;;11.10;99.90;;;;;;4898355;29;20252;-81
2024/02/18 21:10:10;;;;;;;3.40;1.50;;;11.00;99.90;;;;;;4898819;29;20210;-76
2024/02/18 21:12:37;;;;;;;3.23;1.20;;;11.10;99.90;;;;;;4897650;29;20257;-82
2024/02/18 21:15:05;;;;;;;5.77;1.50;;;10.90;99.90;;;;;;4898766;29;20222;-75
2024/02/18 21:17:32;;;;;;;10.77;1.73;;;10.80;99.90;;;;;;4898728;29;20214;-86
2024/02/18 21:20:00;;;;;;;5.97;1.63;;;10.90;99.90;;;;;;4898850;29;20217;-83
2024/02/18 21:22:27;;;;;;;4.10;1.20;;;10.90;99.90;;;;;;4898287;29;20230;-80
2024/02/18 21:24:54;;;;;;;6.57;1.23;;;10.90;99.90;;;;;;4899379;29;20329;-79
2024/02/18 21:27:21;;;;;;;5.87;1.40;;;10.90;99.90;;;;;;4898950;29;20221;-79
2024/02/18 21:29:48;;;;;;;2.40;1.10;;;10.80;99.90;;;;;;4898836;29;20273;-84
2024/02/18 21:32:15;;;;;;;3.17;1.20;;;10.80;99.90;;;;;;4899957;29;20214;-86
2024/02/18 21:34:42;;;;;;;4.33;1.43;;;10.70;99.90;;;;;;4899928;29;20214;-80
2024/02/18 21:37:10;;;;;;;9.03;1.53;;;10.70;99.90;;;;;;4900126;29;20206;-79
2024/02/18 21:39:38;;;;;;;6.70;1.30;;;10.60;99.90;;;;;;4899778;29;20236;-85
2024/02/18 21:42:05;;;;;;;6.93;1.47;;;10.60;99.90;;;;;;4900081;29;20242;-83
2024/02/18 21:44:32;;;;;;;2.93;1.20;;;10.60;99.90;;;;;;4901473;29;20237;-86
2024/02/18 21:46:59;;;;;;;9.47;1.50;;;10.60;99.90;;;;;;4900273;29;20214;-87
2024/02/18 21:49:26;;;;;;;3.53;1.13;;;10.50;99.90;;;;;;4901520;29;20281;-86
2024/02/18 21:51:53;;;;;;;6.77;1.13;;;10.50;99.90;;;;;;4908260;29;20206;-86
2024/02/18 21:54:22;;;;;;;5.17;1.00;;;10.60;99.90;;;;;;4906789;29;20330;-83
2024/02/18 21:56:49;;;;;;;6.93;1.20;;;10.60;99.90;;;;;;4906132;29;20242;-77
2024/02/18 21:59:16;;;;;;;5.03;1.00;;;10.70;99.90;;;;;;4897522;29;20217;-76
2024/02/18 22:01:43;;;;;;;6.07;1.47;;;10.70;99.90;;;;;;4898399;29;20210;-75
2024/02/18 22:04:10;;;;;;;5.87;1.00;;;10.80;99.90;;;;;;4897739;29;20242;-74
2024/02/18 22:06:37;;;;;;;6.63;1.20;;;10.80;99.90;;;;;;4897706;29;20626;-75
2024/02/18 22:09:04;;;;;;;6.93;1.20;;;10.70;99.90;;;;;;4897783;29;20215;-75
2024/02/18 22:11:34;;;;;;;8.00;1.53;;;10.70;99.90;;;;;;4897437;29;20749;-75
2024/02/18 22:14:01;;;;;;;4.90;1.47;;;10.70;99.90;;;;;;4889304;29;20226;-79
2024/02/18 22:16:28;;;;;;;3.80;1.30;;;10.70;99.90;;;;;;4886086;29;20726;-79
2024/02/18 22:18:55;;;;;;;6.60;1.50;;;10.60;99.90;;;;;;4895437;29;20246;-79
2024/02/18 22:21:24;;;;;;;7.23;1.53;;;10.50;99.90;;;;;;4895574;29;20301;-75
